Air Resources Laboratory banner image
Air Resources Laboratory web site National Oceanic and Atmospheric Administration (NOAA)

ia metar


KADU 200055Z AUTO 00000KT 7SM RA SCT019 BKN038 OVC050 22/21 A2984 RMK AO2 P0002=
KAIO 200055Z AUTO 33005KT 1SM +RA FEW021 BKN027 OVC070 19/19 A2982 RMK AO2
 P0003=
KALO 200054Z AUTO 10005KT 9SM CLR 24/20 A2987 RMK AO2 SLP109 T02390200 $=
KAMW 200053Z AUTO 00000KT 4SM -RA BR SCT048 SCT060 BKN075 23/21 A2984 RMK AO2
 RAB2359E14B44 SLP096 P0003 T02330211=
KAWG 200055Z AUTO 11006KT 10SM CLR 24/21 A2988 RMK AO2=
KAXA 200055Z AUTO 13004KT 10SM FEW085 24/21 A2988 RMK AO2 PWINO=
KBNW 200055Z AUTO 09007KT 9SM FEW040 SCT060 SCT065 24/20 A2984 RMK AO2=
KBRL 200053Z AUTO 10005KT 10SM CLR 26/20 A2986 RMK AO2 SLP107 T02560200=
KCAV 200055Z AUTO 12005KT 10SM CLR 24/20 A2987 RMK AO2 PWINO=
KCBF 200055Z AUTO 36006KT 3SM -RA FEW031 SCT046 BKN080 19/19 A2984 RMK AO2
 P0011=
KCCY 200055Z AUTO 12005KT 10SM CLR 23/20 A2991 RMK AO2=
KCID 200052Z 10008KT 7SM CLR 23/20 A2987 RMK AO2 SLP111 T02330200=
KCIN 200055Z AUTO 06012KT 1 1/4SM RA SCT002 BKN031 OVC040 22/22 A2984 RMK AO2
 P0016=
KCNC 200055Z AUTO 10007KT 7SM -RA FEW036 FEW044 SCT050 23/20 A2981 RMK AO2
 P0001=
KCSQ 200055Z AUTO 10009G14KT 1 1/2SM -RA SCT003 BKN029 OVC039 21/20 A2982 RMK
 AO2 P0017=
KCWI 200056Z AUTO 10008KT 10SM CLR 23/20 A2991 RMK AO2 SLP142 T02330200=
KDBQ 200053Z 09005KT 9SM CLR 23/19 A2992 RMK AO2 SLP127 T02280194=
KDEH 200055Z AUTO 11005KT 10SM CLR 23/21 A2991 RMK AO2=
KDNS 200055Z AUTO 01006KT 7SM -RA FEW008 BKN023 BKN027 20/20 A2987 RMK AO2
 P0002=
KDSM 200054Z 08009KT 10SM -RA FEW045 SCT075 OVC110 25/20 A2980 RMK AO2 RAB43
 SLP085 TCU DSNT N P0000 T02500200=
KDVN 200052Z AUTO 11005KT 10SM CLR 24/19 A2991 RMK AO2 SLP121 T02390189 $=
KEBS 200055Z AUTO 10SM FEW080 23/21 A2984 RMK AO2=
KEOK 200055Z AUTO 09009KT 10SM CLR 26/21 A2984 RMK AO2=
KEST 200052Z AUTO 30008KT 10SM FEW026 SCT035 SCT046 21/19 A2989 RMK AO2 SLP115
 T02110189=
KFFL 200055Z AUTO 11006KT 10SM CLR 25/19 A2985 RMK AO2 PWINO=
KFOD 200056Z AUTO 08004KT 10SM BKN065 OVC080 23/21 A2986 RMK AO2 SLP132
 T02330211=
KFSW 200055Z AUTO 09004KT 10SM CLR 25/22 A2987 RMK AO2=
KHNR 200055Z AUTO 33008KT 10SM -RA 20/20 A2984 RMK AO2 P0002=
KICL 200055Z AUTO 00000KT 3SM RA FEW003 SCT028 BKN034 20/19 A2984 RMK AO2 P0019=
KIKV 200055Z AUTO 06005KT 10SM CLR 24/20 A2983 RMK AO2=
KIOW 200052Z AUTO 09007KT 10SM CLR 26/20 A2988 RMK AO2 SLP115 T02560200=
KLRJ 200055Z AUTO 03005KT 10SM FEW010 FEW060 FEW080 19/19 A2988 RMK AO2=
KLWD 200053Z AUTO 07005KT 5SM -RA BR FEW050 BKN095 OVC110 22/21 A2979 RMK AO2
 SLP079 P0003 T02220206=
KMCW 200053Z AUTO 12004KT 10SM CLR 22/21 A2991 RMK AO2 SLP116 T02220211=
KMIW 200053Z AUTO 10007KT 9SM FEW045 24/22 A2986 RMK AO2 SLP105 T02390217=
KMUT 200055Z AUTO 10005KT 10SM CLR 26/20 A2988 RMK AO2=
KMXO 200055Z AUTO 11004KT 10SM 23/21 A2990 RMK AO2=
KOLZ 200055Z AUTO 11005KT 10SM CLR 23/21 A2991 RMK AO2=
KORC 200055Z AUTO 00000KT 7SM -RA SCT016 SCT047 21/20 A2990 RMK AO2 P0013=
KOTM 200053Z AUTO 11008KT 10SM CLR 25/20 A2984 RMK AO2 SLP097 T02500200=
KOXV 200055Z AUTO 10005KT 10SM FEW130 25/20 A2981 RMK AO2=
KRDK 200055Z AUTO 33005KT 2SM RA FEW021 BKN031 OVC038 20/20 A2983 RMK AO2=
KSDA 200055Z AUTO 01004KT 2 1/2SM -RA SCT036 BKN046 OVC065 19/19 A2982 RMK AO2=
KSHL 200055Z AUTO 00000KT 10SM SCT110 19/19 A2989 RMK AO2=
KSLB 200055Z AUTO 35007KT 10SM FEW070 19/19 A2988 RMK AO2 P0011=
KSPW 200053Z AUTO 29005KT 10SM SCT031 BKN100 21/19 A2989 RMK AO2 SLP117
 T02060189 $=
KSUX 200052Z 35004KT 8SM -RA SCT090 OVC110 20/19 A2987 RMK AO2 SLP111 P0000
 T02000189=
KTNU 200055Z AUTO 09007KT 10SM CLR 24/21 A2984 RMK AO2 PWINO=